Terminal Aerodrome Forecast
Issued by NWS

Home | Current Version | Previous Version | Text Only | Print | Product List | Glossary Off
Versions: 1 2 3 4 5 6 7 8 9 10 11 12 13 14

000
FTUS43 KGRB 181734
TAFRHI
TAF
KRHI 181734Z 1818/1918 05010G17KT P6SM OVC015
     FM182200 03010G16KT P6SM BKN025
     FM190000 02010G15KT P6SM SCT150
     FM190500 35007KT P6SM SKC=

USA.gov is the U.S. government's official web portal to all federal, state and local government web resources and services.